sensor_id;sensor_type;location;lat;lon;timestamp;P1;durP1;ratioP1;P2;durP2;ratioP2
46322;SDS011;32044;52.386;13.278;2023-04-25T00:01:20;6.78;;;2.40;;
46322;SDS011;32044;52.386;13.278;2023-04-25T00:03:48;7.65;;;2.75;;
46322;SDS011;32044;52.386;13.278;2023-04-25T00:06:17;5.65;;;2.40;;
46322;SDS011;32044;52.386;13.278;2023-04-25T00:08:44;6.78;;;2.58;;
46322;SDS011;32044;52.386;13.278;2023-04-25T00:11:12;7.63;;;2.92;;
46322;SDS011;32044;52.386;13.278;2023-04-25T00:13:40;7.63;;;2.45;;
46322;SDS011;32044;52.386;13.278;2023-04-25T00:16:10;8.95;;;3.05;;
46322;SDS011;32044;52.386;13.278;2023-04-25T00:18:39;8.02;;;2.67;;
46322;SDS011;32044;52.386;13.278;2023-04-25T00:21:09;7.20;;;2.90;;
46322;SDS011;32044;52.386;13.278;2023-04-25T00:23:36;8.32;;;2.70;;
46322;SDS011;32044;52.386;13.278;2023-04-25T00:26:05;6.90;;;2.53;;
46322;SDS011;32044;52.386;13.278;2023-04-25T00:28:32;8.02;;;3.17;;
46322;SDS011;32044;52.386;13.278;2023-04-25T00:31:00;8.38;;;3.05;;
46322;SDS011;32044;52.386;13.278;2023-04-25T00:33:29;5.70;;;2.97;;
46322;SDS011;32044;52.386;13.278;2023-04-25T00:35:56;6.43;;;2.97;;
46322;SDS011;32044;52.386;13.278;2023-04-25T00:38:24;5.97;;;3.17;;
46322;SDS011;32044;52.386;13.278;2023-04-25T00:40:52;11.35;;;3.20;;
46322;SDS011;32044;52.386;13.278;2023-04-25T00:43:21;8.20;;;3.20;;
46322;SDS011;32044;52.386;13.278;2023-04-25T00:45:49;14.00;;;3.60;;
46322;SDS011;32044;52.386;13.278;2023-04-25T00:48:18;12.27;;;3.97;;
46322;SDS011;32044;52.386;13.278;2023-04-25T00:50:48;8.68;;;3.78;;
46322;SDS011;32044;52.386;13.278;2023-04-25T00:53:18;10.48;;;3.38;;
46322;SDS011;32044;52.386;13.278;2023-04-25T00:55:46;12.75;;;3.90;;
46322;SDS011;32044;52.386;13.278;2023-04-25T00:58:14;8.60;;;3.60;;
46322;SDS011;32044;52.386;13.278;2023-04-25T01:00:42;8.10;;;3.15;;
46322;SDS011;32044;52.386;13.278;2023-04-25T01:03:09;4.90;;;2.72;;
46322;SDS011;32044;52.386;13.278;2023-04-25T01:05:38;5.68;;;2.90;;
46322;SDS011;32044;52.386;13.278;2023-04-25T01:08:08;11.52;;;3.70;;
46322;SDS011;32044;52.386;13.278;2023-04-25T01:10:36;6.90;;;3.45;;
46322;SDS011;32044;52.386;13.278;2023-04-25T01:13:04;9.13;;;3.33;;
46322;SDS011;32044;52.386;13.278;2023-04-25T01:15:31;9.23;;;3.00;;
46322;SDS011;32044;52.386;13.278;2023-04-25T01:17:59;6.88;;;3.53;;
46322;SDS011;32044;52.386;13.278;2023-04-25T01:20:27;7.63;;;3.28;;
46322;SDS011;32044;52.386;13.278;2023-04-25T01:22:57;9.93;;;3.33;;
46322;SDS011;32044;52.386;13.278;2023-04-25T01:25:25;10.77;;;3.50;;
46322;SDS011;32044;52.386;13.278;2023-04-25T01:27:53;8.45;;;3.17;;
46322;SDS011;32044;52.386;13.278;2023-04-25T01:30:20;10.25;;;3.70;;
46322;SDS011;32044;52.386;13.278;2023-04-25T01:32:48;8.85;;;3.38;;
46322;SDS011;32044;52.386;13.278;2023-04-25T01:35:16;8.80;;;3.80;;
46322;SDS011;32044;52.386;13.278;2023-04-25T01:37:44;8.77;;;3.40;;
46322;SDS011;32044;52.386;13.278;2023-04-25T01:40:13;10.00;;;3.50;;
46322;SDS011;32044;52.386;13.278;2023-04-25T01:42:42;8.45;;;3.25;;
46322;SDS011;32044;52.386;13.278;2023-04-25T01:45:10;10.45;;;3.15;;
46322;SDS011;32044;52.386;13.278;2023-04-25T01:47:39;7.50;;;3.30;;
46322;SDS011;32044;52.386;13.278;2023-04-25T01:50:09;9.00;;;3.67;;
46322;SDS011;32044;52.386;13.278;2023-04-25T01:52:38;9.10;;;3.45;;
46322;SDS011;32044;52.386;13.278;2023-04-25T01:55:06;7.47;;;3.53;;
46322;SDS011;32044;52.386;13.278;2023-04-25T01:57:35;8.35;;;3.30;;
46322;SDS011;32044;52.386;13.278;2023-04-25T02:00:04;9.65;;;3.30;;
46322;SDS011;32044;52.386;13.278;2023-04-25T02:02:32;7.50;;;3.05;;
46322;SDS011;32044;52.386;13.278;2023-04-25T02:05:00;7.68;;;3.28;;
46322;SDS011;32044;52.386;13.278;2023-04-25T02:07:28;8.50;;;3.92;;
46322;SDS011;32044;52.386;13.278;2023-04-25T02:09:55;7.22;;;3.40;;
46322;SDS011;32044;52.386;13.278;2023-04-25T02:12:23;6.50;;;3.63;;
46322;SDS011;32044;52.386;13.278;2023-04-25T02:14:53;8.80;;;3.13;;
46322;SDS011;32044;52.386;13.278;2023-04-25T02:17:21;10.20;;;3.55;;
46322;SDS011;32044;52.386;13.278;2023-04-25T02:19:48;7.68;;;3.75;;
46322;SDS011;32044;52.386;13.278;2023-04-25T02:22:16;9.00;;;4.10;;
46322;SDS011;32044;52.386;13.278;2023-04-25T02:24:43;5.38;;;3.67;;
46322;SDS011;32044;52.386;13.278;2023-04-25T02:27:11;10.65;;;4.93;;
46322;SDS011;32044;52.386;13.278;2023-04-25T02:29:38;7.85;;;4.25;;
46322;SDS011;32044;52.386;13.278;2023-04-25T02:32:07;9.45;;;4.68;;
46322;SDS011;32044;52.386;13.278;2023-04-25T02:34:35;8.68;;;4.25;;
46322;SDS011;32044;52.386;13.278;2023-04-25T02:37:03;8.70;;;3.90;;
46322;SDS011;32044;52.386;13.278;2023-04-25T02:39:30;9.82;;;4.00;;
46322;SDS011;32044;52.386;13.278;2023-04-25T02:41:58;9.02;;;4.40;;
46322;SDS011;32044;52.386;13.278;2023-04-25T02:44:25;9.65;;;4.07;;
46322;SDS011;32044;52.386;13.278;2023-04-25T02:46:53;13.73;;;4.75;;
46322;SDS011;32044;52.386;13.278;2023-04-25T02:49:22;11.10;;;4.43;;
46322;SDS011;32044;52.386;13.278;2023-04-25T02:51:49;9.27;;;4.45;;
46322;SDS011;32044;52.386;13.278;2023-04-25T02:54:17;9.52;;;4.00;;
46322;SDS011;32044;52.386;13.278;2023-04-25T02:56:44;14.88;;;4.97;;
46322;SDS011;32044;52.386;13.278;2023-04-25T02:59:12;7.18;;;4.72;;
46322;SDS011;32044;52.386;13.278;2023-04-25T03:01:39;11.13;;;4.00;;
46322;SDS011;32044;52.386;13.278;2023-04-25T03:04:07;9.93;;;4.68;;
46322;SDS011;32044;52.386;13.278;2023-04-25T03:06:36;12.10;;;4.68;;
46322;SDS011;32044;52.386;13.278;2023-04-25T03:09:03;7.05;;;4.18;;
46322;SDS011;32044;52.386;13.278;2023-04-25T03:11:31;12.35;;;4.30;;
46322;SDS011;32044;52.386;13.278;2023-04-25T03:13:59;9.95;;;4.88;;
46322;SDS011;32044;52.386;13.278;2023-04-25T03:16:26;8.02;;;4.32;;
46322;SDS011;32044;52.386;13.278;2023-04-25T03:18:54;8.90;;;3.83;;
46322;SDS011;32044;52.386;13.278;2023-04-25T03:21:21;11.68;;;4.10;;
46322;SDS011;32044;52.386;13.278;2023-04-25T03:23:50;10.77;;;4.07;;
46322;SDS011;32044;52.386;13.278;2023-04-25T03:26:18;12.50;;;4.75;;
46322;SDS011;32044;52.386;13.278;2023-04-25T03:28:46;8.18;;;4.65;;
46322;SDS011;32044;52.386;13.278;2023-04-25T03:31:14;9.85;;;3.88;;
46322;SDS011;32044;52.386;13.278;2023-04-25T03:33:42;8.13;;;4.40;;
46322;SDS011;32044;52.386;13.278;2023-04-25T03:36:09;9.23;;;4.07;;
46322;SDS011;32044;52.386;13.278;2023-04-25T03:38:37;8.15;;;4.65;;
46322;SDS011;32044;52.386;13.278;2023-04-25T03:41:06;16.95;;;4.78;;
46322;SDS011;32044;52.386;13.278;2023-04-25T03:43:34;12.55;;;4.22;;
46322;SDS011;32044;52.386;13.278;2023-04-25T03:46:01;7.22;;;4.65;;
46322;SDS011;32044;52.386;13.278;2023-04-25T03:48:29;8.98;;;4.25;;
46322;SDS011;32044;52.386;13.278;2023-04-25T03:50:56;9.23;;;4.40;;
46322;SDS011;32044;52.386;13.278;2023-04-25T03:53:24;9.20;;;4.65;;
46322;SDS011;32044;52.386;13.278;2023-04-25T03:55:52;9.98;;;4.75;;
46322;SDS011;32044;52.386;13.278;2023-04-25T03:58:21;10.43;;;4.88;;
46322;SDS011;32044;52.386;13.278;2023-04-25T04:00:49;12.80;;;5.25;;
46322;SDS011;32044;52.386;13.278;2023-04-25T04:03:16;10.65;;;5.03;;
46322;SDS011;32044;52.386;13.278;2023-04-25T04:05:44;11.90;;;5.28;;
46322;SDS011;32044;52.386;13.278;2023-04-25T04:08:13;9.55;;;4.57;;
46322;SDS011;32044;52.386;13.278;2023-04-25T04:10:40;9.57;;;4.70;;
46322;SDS011;32044;52.386;13.278;2023-04-25T04:13:07;9.95;;;5.28;;
46322;SDS011;32044;52.386;13.278;2023-04-25T04:15:36;11.48;;;4.53;;
46322;SDS011;32044;52.386;13.278;2023-04-25T04:18:04;11.30;;;4.93;;
46322;SDS011;32044;52.386;13.278;2023-04-25T04:20:32;10.13;;;4.97;;
46322;SDS011;32044;52.386;13.278;2023-04-25T04:23:00;13.20;;;4.60;;
46322;SDS011;32044;52.386;13.278;2023-04-25T04:25:27;14.88;;;4.80;;
46322;SDS011;32044;52.386;13.278;2023-04-25T04:27:54;11.35;;;5.13;;
46322;SDS011;32044;52.386;13.278;2023-04-25T04:30:22;13.20;;;4.80;;
46322;SDS011;32044;52.386;13.278;2023-04-25T04:32:52;10.07;;;5.03;;
46322;SDS011;32044;52.386;13.278;2023-04-25T04:35:20;17.52;;;5.63;;
46322;SDS011;32044;52.386;13.278;2023-04-25T04:37:48;15.48;;;5.47;;
46322;SDS011;32044;52.386;13.278;2023-04-25T04:40:15;16.30;;;5.03;;
46322;SDS011;32044;52.386;13.278;2023-04-25T04:42:43;13.98;;;4.55;;
46322;SDS011;32044;52.386;13.278;2023-04-25T04:45:11;17.23;;;5.10;;
46322;SDS011;32044;52.386;13.278;2023-04-25T04:47:39;13.05;;;5.45;;
46322;SDS011;32044;52.386;13.278;2023-04-25T04:50:08;15.65;;;6.20;;
46322;SDS011;32044;52.386;13.278;2023-04-25T04:52:37;10.20;;;5.10;;
46322;SDS011;32044;52.386;13.278;2023-04-25T04:55:05;8.23;;;5.03;;
46322;SDS011;32044;52.386;13.278;2023-04-25T04:57:34;11.70;;;5.57;;
46322;SDS011;32044;52.386;13.278;2023-04-25T05:00:02;14.00;;;5.88;;
46322;SDS011;32044;52.386;13.278;2023-04-25T05:02:34;13.65;;;5.43;;
46322;SDS011;32044;52.386;13.278;2023-04-25T05:05:01;13.52;;;5.45;;
46322;SDS011;32044;52.386;13.278;2023-04-25T05:07:30;13.13;;;5.18;;
46322;SDS011;32044;52.386;13.278;2023-04-25T05:09:58;13.38;;;4.90;;
46322;SDS011;32044;52.386;13.278;2023-04-25T05:12:26;13.60;;;5.45;;
46322;SDS011;32044;52.386;13.278;2023-04-25T05:14:53;13.88;;;5.65;;
46322;SDS011;32044;52.386;13.278;2023-04-25T05:17:21;15.75;;;5.32;;
46322;SDS011;32044;52.386;13.278;2023-04-25T05:19:48;16.75;;;5.35;;
46322;SDS011;32044;52.386;13.278;2023-04-25T05:22:16;11.98;;;5.70;;
46322;SDS011;32044;52.386;13.278;2023-04-25T05:24:44;15.90;;;5.53;;
46322;SDS011;32044;52.386;13.278;2023-04-25T05:27:12;15.20;;;6.15;;
46322;SDS011;32044;52.386;13.278;2023-04-25T05:29:39;10.23;;;5.78;;
46322;SDS011;32044;52.386;13.278;2023-04-25T05:32:07;12.35;;;5.13;;
46322;SDS011;32044;52.386;13.278;2023-04-25T05:34:35;13.48;;;5.53;;
46322;SDS011;32044;52.386;13.278;2023-04-25T05:37:03;12.55;;;5.53;;
46322;SDS011;32044;52.386;13.278;2023-04-25T05:39:30;9.43;;;5.22;;
46322;SDS011;32044;52.386;13.278;2023-04-25T05:41:59;14.65;;;5.82;;
46322;SDS011;32044;52.386;13.278;2023-04-25T05:44:27;10.70;;;5.65;;
46322;SDS011;32044;52.386;13.278;2023-04-25T05:46:55;10.90;;;5.35;;
46322;SDS011;32044;52.386;13.278;2023-04-25T05:49:22;11.23;;;5.95;;
46322;SDS011;32044;52.386;13.278;2023-04-25T05:51:50;11.10;;;5.20;;
46322;SDS011;32044;52.386;13.278;2023-04-25T05:54:18;14.85;;;5.95;;
46322;SDS011;32044;52.386;13.278;2023-04-25T05:56:45;14.82;;;5.90;;
46322;SDS011;32044;52.386;13.278;2023-04-25T05:59:14;14.23;;;6.30;;
46322;SDS011;32044;52.386;13.278;2023-04-25T06:01:41;16.63;;;5.95;;
46322;SDS011;32044;52.386;13.278;2023-04-25T06:04:09;20.48;;;6.30;;
46322;SDS011;32044;52.386;13.278;2023-04-25T06:06:37;13.82;;;6.05;;
46322;SDS011;32044;52.386;13.278;2023-04-25T06:09:04;13.23;;;5.97;;
46322;SDS011;32044;52.386;13.278;2023-04-25T06:11:32;9.85;;;5.65;;
46322;SDS011;32044;52.386;13.278;2023-04-25T06:14:00;15.15;;;6.55;;
46322;SDS011;32044;52.386;13.278;2023-04-25T06:16:28;12.85;;;5.88;;
46322;SDS011;32044;52.386;13.278;2023-04-25T06:18:56;19.20;;;6.28;;
46322;SDS011;32044;52.386;13.278;2023-04-25T06:21:24;14.65;;;5.90;;
46322;SDS011;32044;52.386;13.278;2023-04-25T06:23:52;13.95;;;5.90;;
46322;SDS011;32044;52.386;13.278;2023-04-25T06:26:19;12.80;;;6.00;;
46322;SDS011;32044;52.386;13.278;2023-04-25T06:28:47;14.70;;;5.95;;
46322;SDS011;32044;52.386;13.278;2023-04-25T06:31:14;13.38;;;6.50;;
46322;SDS011;32044;52.386;13.278;2023-04-25T06:33:43;13.80;;;5.47;;
46322;SDS011;32044;52.386;13.278;2023-04-25T06:36:11;15.48;;;6.32;;
46322;SDS011;32044;52.386;13.278;2023-04-25T06:38:38;12.48;;;6.10;;
46322;SDS011;32044;52.386;13.278;2023-04-25T06:41:06;17.45;;;6.55;;
46322;SDS011;32044;52.386;13.278;2023-04-25T06:43:34;14.38;;;6.05;;
46322;SDS011;32044;52.386;13.278;2023-04-25T06:46:01;11.45;;;5.78;;
46322;SDS011;32044;52.386;13.278;2023-04-25T06:48:29;10.90;;;5.60;;
46322;SDS011;32044;52.386;13.278;2023-04-25T06:50:58;15.23;;;5.65;;
46322;SDS011;32044;52.386;13.278;2023-04-25T06:53:25;12.30;;;5.32;;
46322;SDS011;32044;52.386;13.278;2023-04-25T06:55:53;14.95;;;5.53;;
46322;SDS011;32044;52.386;13.278;2023-04-25T06:58:20;10.02;;;5.78;;
46322;SDS011;32044;52.386;13.278;2023-04-25T07:00:48;10.02;;;4.97;;
46322;SDS011;32044;52.386;13.278;2023-04-25T07:03:16;10.32;;;5.72;;
46322;SDS011;32044;52.386;13.278;2023-04-25T07:05:44;11.68;;;5.28;;
46322;SDS011;32044;52.386;13.278;2023-04-25T07:08:13;9.07;;;5.45;;
46322;SDS011;32044;52.386;13.278;2023-04-25T07:10:41;17.05;;;6.20;;
46322;SDS011;32044;52.386;13.278;2023-04-25T07:13:08;18.25;;;6.38;;
46322;SDS011;32044;52.386;13.278;2023-04-25T07:15:36;17.45;;;6.18;;
46322;SDS011;32044;52.386;13.278;2023-04-25T07:18:04;12.85;;;5.53;;
46322;SDS011;32044;52.386;13.278;2023-04-25T07:20:31;13.40;;;5.70;;
46322;SDS011;32044;52.386;13.278;2023-04-25T07:22:59;11.80;;;5.40;;
46322;SDS011;32044;52.386;13.278;2023-04-25T07:25:28;12.27;;;4.25;;
46322;SDS011;32044;52.386;13.278;2023-04-25T07:27:56;15.40;;;4.70;;
46322;SDS011;32044;52.386;13.278;2023-04-25T07:30:24;9.82;;;4.85;;
46322;SDS011;32044;52.386;13.278;2023-04-25T07:32:51;13.07;;;5.15;;
46322;SDS011;32044;52.386;13.278;2023-04-25T07:35:19;19.77;;;5.25;;
46322;SDS011;32044;52.386;13.278;2023-04-25T07:37:46;16.48;;;5.38;;
46322;SDS011;32044;52.386;13.278;2023-04-25T07:40:14;19.33;;;4.68;;
46322;SDS011;32044;52.386;13.278;2023-04-25T07:42:44;19.13;;;5.50;;
46322;SDS011;32044;52.386;13.278;2023-04-25T07:45:11;13.50;;;4.63;;
46322;SDS011;32044;52.386;13.278;2023-04-25T07:47:39;17.17;;;5.30;;
46322;SDS011;32044;52.386;13.278;2023-04-25T07:50:07;20.75;;;4.93;;
46322;SDS011;32044;52.386;13.278;2023-04-25T07:52:36;19.10;;;4.43;;
46322;SDS011;32044;52.386;13.278;2023-04-25T07:55:04;19.33;;;4.85;;
46322;SDS011;32044;52.386;13.278;2023-04-25T07:57:32;19.75;;;5.20;;
46322;SDS011;32044;52.386;13.278;2023-04-25T08:00:01;21.00;;;4.53;;
46322;SDS011;32044;52.386;13.278;2023-04-25T08:02:28;20.60;;;5.03;;
46322;SDS011;32044;52.386;13.278;2023-04-25T08:04:56;19.10;;;4.88;;
46322;SDS011;32044;52.386;13.278;2023-04-25T08:07:24;21.88;;;5.10;;
46322;SDS011;32044;52.386;13.278;2023-04-25T08:09:53;18.92;;;4.95;;
46322;SDS011;32044;52.386;13.278;2023-04-25T08:12:21;18.33;;;5.20;;
46322;SDS011;32044;52.386;13.278;2023-04-25T08:14:48;17.55;;;4.35;;
46322;SDS011;32044;52.386;13.278;2023-04-25T08:17:17;14.80;;;4.63;;
46322;SDS011;32044;52.386;13.278;2023-04-25T08:19:45;23.60;;;4.20;;
46322;SDS011;32044;52.386;13.278;2023-04-25T08:22:12;16.63;;;4.90;;
46322;SDS011;32044;52.386;13.278;2023-04-25T08:24:41;21.58;;;4.78;;
46322;SDS011;32044;52.386;13.278;2023-04-25T08:27:08;20.90;;;4.93;;
46322;SDS011;32044;52.386;13.278;2023-04-25T08:29:37;21.63;;;4.70;;
46322;SDS011;32044;52.386;13.278;2023-04-25T08:32:04;17.75;;;4.40;;
46322;SDS011;32044;52.386;13.278;2023-04-25T08:34:33;20.92;;;4.28;;
46322;SDS011;32044;52.386;13.278;2023-04-25T08:37:02;22.15;;;4.43;;
46322;SDS011;32044;52.386;13.278;2023-04-25T08:39:31;23.15;;;4.40;;
46322;SDS011;32044;52.386;13.278;2023-04-25T08:41:59;25.88;;;5.03;;
46322;SDS011;32044;52.386;13.278;2023-04-25T08:44:28;15.93;;;4.10;;
46322;SDS011;32044;52.386;13.278;2023-04-25T08:46:56;17.85;;;4.18;;
46322;SDS011;32044;52.386;13.278;2023-04-25T08:49:24;19.88;;;3.97;;
46322;SDS011;32044;52.386;13.278;2023-04-25T08:51:53;15.18;;;4.10;;
46322;SDS011;32044;52.386;13.278;2023-04-25T08:54:24;20.65;;;3.97;;
46322;SDS011;32044;52.386;13.278;2023-04-25T08:57:02;15.93;;;3.65;;
46322;SDS011;32044;52.386;13.278;2023-04-25T08:59:31;23.90;;;4.28;;
46322;SDS011;32044;52.386;13.278;2023-04-25T09:02:01;9.83;;;2.83;;
46322;SDS011;32044;52.386;13.278;2023-04-25T09:04:29;18.73;;;3.78;;
46322;SDS011;32044;52.386;13.278;2023-04-25T09:06:59;13.82;;;3.35;;
46322;SDS011;32044;52.386;13.278;2023-04-25T09:09:26;21.80;;;3.85;;
46322;SDS011;32044;52.386;13.278;2023-04-25T09:11:54;18.17;;;3.88;;
46322;SDS011;32044;52.386;13.278;2023-04-25T09:14:22;19.75;;;3.63;;
46322;SDS011;32044;52.386;13.278;2023-04-25T09:17:02;14.30;;;3.95;;
46322;SDS011;32044;52.386;13.278;2023-04-25T09:19:31;12.32;;;3.33;;
46322;SDS011;32044;52.386;13.278;2023-04-25T09:22:07;17.27;;;3.72;;
46322;SDS011;32044;52.386;13.278;2023-04-25T09:24:35;26.13;;;4.10;;
46322;SDS011;32044;52.386;13.278;2023-04-25T09:27:04;13.75;;;3.53;;
46322;SDS011;32044;52.386;13.278;2023-04-25T09:29:33;22.63;;;3.88;;
46322;SDS011;32044;52.386;13.278;2023-04-25T09:32:11;17.38;;;3.90;;
46322;SDS011;32044;52.386;13.278;2023-04-25T09:34:44;13.02;;;3.65;;
46322;SDS011;32044;52.386;13.278;2023-04-25T09:37:18;10.07;;;3.00;;
46322;SDS011;32044;52.386;13.278;2023-04-25T09:39:47;16.05;;;3.67;;
46322;SDS011;32044;52.386;13.278;2023-04-25T09:42:15;22.30;;;3.83;;
46322;SDS011;32044;52.386;13.278;2023-04-25T09:44:43;20.17;;;4.30;;
46322;SDS011;32044;52.386;13.278;2023-04-25T09:47:12;17.00;;;4.13;;
46322;SDS011;32044;52.386;13.278;2023-04-25T09:49:42;17.73;;;3.58;;
46322;SDS011;32044;52.386;13.278;2023-04-25T09:52:13;14.27;;;4.22;;
46322;SDS011;32044;52.386;13.278;2023-04-25T09:54:42;22.52;;;3.95;;
46322;SDS011;32044;52.386;13.278;2023-04-25T09:57:11;16.30;;;3.67;;
46322;SDS011;32044;52.386;13.278;2023-04-25T09:59:42;18.20;;;4.00;;
46322;SDS011;32044;52.386;13.278;2023-04-25T10:02:11;16.50;;;3.75;;
46322;SDS011;32044;52.386;13.278;2023-04-25T10:04:39;12.50;;;3.85;;
46322;SDS011;32044;52.386;13.278;2023-04-25T10:07:08;14.45;;;4.07;;
46322;SDS011;32044;52.386;13.278;2023-04-25T10:09:36;17.60;;;3.38;;
46322;SDS011;32044;52.386;13.278;2023-04-25T10:12:07;21.38;;;4.55;;
46322;SDS011;32044;52.386;13.278;2023-04-25T10:14:35;19.73;;;3.55;;
46322;SDS011;32044;52.386;13.278;2023-04-25T10:17:02;15.48;;;3.58;;
46322;SDS011;32044;52.386;13.278;2023-04-25T10:19:30;11.25;;;3.20;;
46322;SDS011;32044;52.386;13.278;2023-04-25T10:22:03;12.43;;;3.10;;
46322;SDS011;32044;52.386;13.278;2023-04-25T10:24:33;14.82;;;3.13;;
46322;SDS011;32044;52.386;13.278;2023-04-25T10:27:02;11.05;;;3.17;;
46322;SDS011;32044;52.386;13.278;2023-04-25T10:29:31;12.70;;;3.17;;
46322;SDS011;32044;52.386;13.278;2023-04-25T10:31:59;16.33;;;3.47;;
46322;SDS011;32044;52.386;13.278;2023-04-25T10:34:37;16.38;;;3.80;;
46322;SDS011;32044;52.386;13.278;2023-04-25T10:37:08;14.05;;;3.40;;
46322;SDS011;32044;52.386;13.278;2023-04-25T10:39:37;13.40;;;2.90;;
46322;SDS011;32044;52.386;13.278;2023-04-25T10:42:06;15.45;;;3.60;;
46322;SDS011;32044;52.386;13.278;2023-04-25T10:44:36;11.23;;;3.13;;
46322;SDS011;32044;52.386;13.278;2023-04-25T10:47:06;11.05;;;3.05;;
46322;SDS011;32044;52.386;13.278;2023-04-25T10:49:35;9.23;;;2.72;;
46322;SDS011;32044;52.386;13.278;2023-04-25T10:54:53;8.48;;;2.78;;
46322;SDS011;32044;52.386;13.278;2023-04-25T10:57:28;16.80;;;3.00;;
46322;SDS011;32044;52.386;13.278;2023-04-25T11:00:04;11.52;;;3.10;;
46322;SDS011;32044;52.386;13.278;2023-04-25T11:02:41;11.43;;;3.10;;
46322;SDS011;32044;52.386;13.278;2023-04-25T11:05:15;13.25;;;3.08;;
46322;SDS011;32044;52.386;13.278;2023-04-25T11:07:49;11.65;;;2.60;;
46322;SDS011;32044;52.386;13.278;2023-04-25T11:10:32;12.02;;;2.72;;
46322;SDS011;32044;52.386;13.278;2023-04-25T11:13:01;10.65;;;2.88;;
46322;SDS011;32044;52.386;13.278;2023-04-25T11:15:30;11.18;;;2.60;;
46322;SDS011;32044;52.386;13.278;2023-04-25T11:17:57;17.25;;;3.15;;
46322;SDS011;32044;52.386;13.278;2023-04-25T11:20:26;12.25;;;2.75;;
46322;SDS011;32044;52.386;13.278;2023-04-25T11:22:56;10.45;;;2.97;;
46322;SDS011;32044;52.386;13.278;2023-04-25T11:25:24;12.48;;;3.15;;
46322;SDS011;32044;52.386;13.278;2023-04-25T11:27:53;12.00;;;2.90;;
46322;SDS011;32044;52.386;13.278;2023-04-25T11:30:22;10.82;;;2.92;;
46322;SDS011;32044;52.386;13.278;2023-04-25T11:32:52;11.63;;;2.70;;
46322;SDS011;32044;52.386;13.278;2023-04-25T11:35:20;12.75;;;3.03;;
46322;SDS011;32044;52.386;13.278;2023-04-25T11:37:49;12.82;;;2.88;;
46322;SDS011;32044;52.386;13.278;2023-04-25T11:40:17;12.38;;;2.90;;
46322;SDS011;32044;52.386;13.278;2023-04-25T11:42:45;12.40;;;3.00;;
46322;SDS011;32044;52.386;13.278;2023-04-25T11:45:13;11.18;;;2.78;;
46322;SDS011;32044;52.386;13.278;2023-04-25T11:47:41;10.98;;;3.03;;
46322;SDS011;32044;52.386;13.278;2023-04-25T11:50:10;12.13;;;3.13;;
46322;SDS011;32044;52.386;13.278;2023-04-25T11:52:40;13.43;;;3.28;;
46322;SDS011;32044;52.386;13.278;2023-04-25T11:55:10;10.30;;;3.05;;
46322;SDS011;32044;52.386;13.278;2023-04-25T11:57:40;10.20;;;2.50;;
46322;SDS011;32044;52.386;13.278;2023-04-25T12:00:09;13.85;;;2.65;;
46322;SDS011;32044;52.386;13.278;2023-04-25T12:02:43;14.75;;;2.42;;
46322;SDS011;32044;52.386;13.278;2023-04-25T12:05:13;11.95;;;2.83;;
46322;SDS011;32044;52.386;13.278;2023-04-25T12:08:09;16.23;;;2.63;;
46322;SDS011;32044;52.386;13.278;2023-04-25T12:10:38;10.55;;;2.20;;
46322;SDS011;32044;52.386;13.278;2023-04-25T12:13:19;11.50;;;2.17;;
46322;SDS011;32044;52.386;13.278;2023-04-25T12:15:47;6.18;;;1.98;;
46322;SDS011;32044;52.386;13.278;2023-04-25T12:18:18;12.88;;;2.28;;
46322;SDS011;32044;52.386;13.278;2023-04-25T12:20:47;7.27;;;1.77;;
46322;SDS011;32044;52.386;13.278;2023-04-25T12:23:15;13.45;;;2.40;;
46322;SDS011;32044;52.386;13.278;2023-04-25T12:25:43;5.97;;;2.20;;
46322;SDS011;32044;52.386;13.278;2023-04-25T12:28:13;8.25;;;2.88;;
46322;SDS011;32044;52.386;13.278;2023-04-25T12:30:58;10.75;;;2.60;;
46322;SDS011;32044;52.386;13.278;2023-04-25T12:33:27;12.70;;;2.47;;
46322;SDS011;32044;52.386;13.278;2023-04-25T12:35:56;10.65;;;2.70;;
46322;SDS011;32044;52.386;13.278;2023-04-25T12:38:25;11.88;;;2.60;;
46322;SDS011;32044;52.386;13.278;2023-04-25T12:40:53;9.68;;;2.20;;
46322;SDS011;32044;52.386;13.278;2023-04-25T12:43:21;9.88;;;2.20;;
46322;SDS011;32044;52.386;13.278;2023-04-25T12:45:49;8.50;;;2.33;;
46322;SDS011;32044;52.386;13.278;2023-04-25T12:48:17;11.55;;;2.67;;
46322;SDS011;32044;52.386;13.278;2023-04-25T12:50:45;8.70;;;2.53;;
46322;SDS011;32044;52.386;13.278;2023-04-25T12:53:16;10.70;;;2.67;;
46322;SDS011;32044;52.386;13.278;2023-04-25T12:55:45;12.43;;;2.88;;
46322;SDS011;32044;52.386;13.278;2023-04-25T12:58:13;8.52;;;2.50;;
46322;SDS011;32044;52.386;13.278;2023-04-25T13:00:41;12.50;;;2.95;;
46322;SDS011;32044;52.386;13.278;2023-04-25T13:03:09;8.40;;;2.22;;
46322;SDS011;32044;52.386;13.278;2023-04-25T13:05:37;7.20;;;2.50;;
46322;SDS011;32044;52.386;13.278;2023-04-25T13:08:05;12.70;;;2.95;;
46322;SDS011;32044;52.386;13.278;2023-04-25T13:10:34;9.70;;;2.90;;
46322;SDS011;32044;52.386;13.278;2023-04-25T13:13:02;13.80;;;3.00;;
46322;SDS011;32044;52.386;13.278;2023-04-25T13:15:29;14.38;;;2.38;;
46322;SDS011;32044;52.386;13.278;2023-04-25T13:17:57;11.93;;;2.80;;
46322;SDS011;32044;52.386;13.278;2023-04-25T13:20:25;9.95;;;2.90;;
46322;SDS011;32044;52.386;13.278;2023-04-25T13:22:52;8.20;;;2.38;;
46322;SDS011;32044;52.386;13.278;2023-04-25T13:25:20;11.70;;;3.13;;
46322;SDS011;32044;52.386;13.278;2023-04-25T13:27:49;6.72;;;1.85;;
46322;SDS011;32044;52.386;13.278;2023-04-25T13:30:17;7.72;;;2.20;;
46322;SDS011;32044;52.386;13.278;2023-04-25T13:32:44;9.48;;;2.08;;
46322;SDS011;32044;52.386;13.278;2023-04-25T13:35:12;13.25;;;2.63;;
46322;SDS011;32044;52.386;13.278;2023-04-25T13:37:41;9.13;;;2.17;;
46322;SDS011;32044;52.386;13.278;2023-04-25T13:40:10;6.85;;;2.40;;
46322;SDS011;32044;52.386;13.278;2023-04-25T13:42:51;9.03;;;2.03;;
46322;SDS011;32044;52.386;13.278;2023-04-25T13:45:19;11.27;;;2.50;;
46322;SDS011;32044;52.386;13.278;2023-04-25T13:47:46;8.68;;;2.33;;
46322;SDS011;32044;52.386;13.278;2023-04-25T13:50:14;10.07;;;2.50;;
46322;SDS011;32044;52.386;13.278;2023-04-25T13:52:42;8.00;;;2.50;;
46322;SDS011;32044;52.386;13.278;2023-04-25T13:55:11;10.98;;;2.17;;
46322;SDS011;32044;52.386;13.278;2023-04-25T13:57:38;9.05;;;2.38;;
46322;SDS011;32044;52.386;13.278;2023-04-25T14:00:08;11.52;;;2.28;;
46322;SDS011;32044;52.386;13.278;2023-04-25T14:02:37;10.38;;;2.50;;
46322;SDS011;32044;52.386;13.278;2023-04-25T14:05:05;9.60;;;2.13;;
46322;SDS011;32044;52.386;13.278;2023-04-25T14:07:34;7.15;;;2.55;;
46322;SDS011;32044;52.386;13.278;2023-04-25T14:10:02;6.90;;;2.30;;
46322;SDS011;32044;52.386;13.278;2023-04-25T14:12:30;11.07;;;2.55;;
46322;SDS011;32044;52.386;13.278;2023-04-25T14:14:58;7.30;;;2.33;;
46322;SDS011;32044;52.386;13.278;2023-04-25T14:17:27;9.07;;;2.47;;
46322;SDS011;32044;52.386;13.278;2023-04-25T14:19:55;5.13;;;2.13;;
46322;SDS011;32044;52.386;13.278;2023-04-25T14:22:22;11.20;;;2.75;;
46322;SDS011;32044;52.386;13.278;2023-04-25T14:24:50;16.33;;;3.00;;
46322;SDS011;32044;52.386;13.278;2023-04-25T14:27:18;12.35;;;2.75;;
46322;SDS011;32044;52.386;13.278;2023-04-25T14:29:45;9.75;;;2.35;;
46322;SDS011;32044;52.386;13.278;2023-04-25T14:32:13;7.40;;;2.47;;
46322;SDS011;32044;52.386;13.278;2023-04-25T14:34:43;7.60;;;2.47;;
46322;SDS011;32044;52.386;13.278;2023-04-25T14:37:10;4.45;;;2.30;;